Time;durP1;ratioP1;P1;durP2;ratioP2;P2;SDS_P1;SDS_P2;PMS_P1;PMS_P2;Temp;Humidity;BMP_temperature;BMP_pressure;BME280_temperature;BME280_humidity;BME280_pressure;Samples;Min_cycle;Max_cycle;Signal;HPM_P1;HPM_P2
2023/10/20 00:01:04;;;;;;;4.87;2.80;;;;;;;6.11;100.00;99000.47;4988429;28;20426;-91
2023/10/20 00:03:35;;;;;;;4.85;2.63;;;;;;;5.94;100.00;98995.56;4972710;28;20433;-86
2023/10/20 00:06:05;;;;;;;6.28;2.90;;;;;;;5.85;100.00;98991.88;4970356;28;20428;-88
2023/10/20 00:08:33;;;;;;;6.30;2.90;;;;;;;5.92;100.00;99012.03;4972038;28;20437;-87
2023/10/20 00:11:05;;;;;;;5.68;3.13;;;;;;;5.77;100.00;98983.34;4967090;28;20430;-89
2023/10/20 00:13:37;;;;;;;5.63;3.08;;;;;;;5.78;100.00;98971.44;4974895;28;20430;-88
2023/10/20 00:16:12;;;;;;;5.72;3.17;;;;;;;5.82;100.00;98978.97;4988126;28;20449;-89
2023/10/20 00:18:43;;;;;;;5.80;3.00;;;;;;;5.65;100.00;98955.16;4966834;28;21896;-88
2023/10/20 00:21:11;;;;;;;5.65;2.90;;;;;;;5.78;100.00;98970.63;4973870;28;20434;-89
2023/10/20 00:23:39;;;;;;;5.40;3.13;;;;;;;5.91;100.00;98980.72;4988507;28;20908;-89
2023/10/20 00:26:08;;;;;;;5.75;3.25;;;;;;;5.89;100.00;98991.00;4971323;28;20417;-88
2023/10/20 00:28:37;;;;;;;5.53;3.17;;;;;;;5.82;100.00;98993.25;4974138;28;20433;-88
2023/10/20 00:31:12;;;;;;;5.57;3.17;;;;;;;5.83;100.00;98991.34;4967465;28;20438;-87
2023/10/20 00:33:40;;;;;;;6.13;3.20;;;;;;;5.92;100.00;98995.03;4989270;28;20793;-88
2023/10/20 00:36:09;;;;;;;5.57;3.00;;;;;;;5.73;100.00;98973.41;4974236;28;20940;-90
2023/10/20 00:38:38;;;;;;;5.90;3.30;;;;;;;5.72;100.00;98971.81;4965686;28;20429;-89
2023/10/20 00:41:08;;;;;;;5.38;2.80;;;;;;;5.77;100.00;98974.41;4995246;28;20435;-90
2023/10/20 00:43:38;;;;;;;6.13;3.20;;;;;;;5.69;100.00;98975.06;4966479;28;20938;-88
2023/10/20 00:46:08;;;;;;;6.53;3.38;;;;;;;5.78;100.00;98993.03;4999266;28;21139;-88
2023/10/20 00:48:38;;;;;;;8.75;3.75;;;;;;;5.69;100.00;98978.59;4974398;28;20429;-88
2023/10/20 00:51:13;;;;;;;7.28;3.60;;;;;;;5.69;100.00;98981.28;4974324;28;20943;-88
2023/10/20 00:53:42;;;;;;;7.15;3.47;;;;;;;5.65;100.00;98980.25;4988832;28;20434;-87
2023/10/20 00:56:10;;;;;;;6.30;3.50;;;;;;;5.77;100.00;98988.75;4986343;28;20411;-88
2023/10/20 00:58:39;;;;;;;9.27;4.20;;;;;;;5.77;100.00;98982.53;4991280;28;20426;-88
2023/10/20 01:01:07;;;;;;;6.40;3.55;;;;;;;5.58;100.00;98956.31;4986977;28;20438;-87
2023/10/20 01:03:35;;;;;;;7.82;3.80;;;;;;;5.52;100.00;98945.88;4989683;28;20415;-86
2023/10/20 01:06:06;;;;;;;8.05;4.40;;;;;;;5.77;100.00;98950.94;4973420;28;20427;-87
2023/10/20 01:08:34;;;;;;;7.68;4.30;;;;;;;5.74;100.00;98932.63;4986702;28;20423;-88
2023/10/20 01:11:03;;;;;;;7.70;4.10;;;;;;;5.55;100.00;98908.31;4991283;28;21127;-88
2023/10/20 01:13:31;;;;;;;7.53;4.25;;;;;;;5.75;100.00;98944.22;4988515;28;20449;-88
2023/10/20 01:16:00;;;;;;;7.90;4.93;;;;;;;5.68;100.00;98946.50;4985274;28;20424;-88
2023/10/20 01:18:28;;;;;;;10.30;5.00;;;;;;;5.53;100.00;98934.00;4964394;28;20443;-88
2023/10/20 01:20:57;;;;;;;10.85;5.10;;;;;;;5.54;100.00;98955.28;4990108;28;20919;-89
2023/10/20 01:23:27;;;;;;;9.13;5.13;;;;;;;5.55;100.00;98946.09;4989559;28;20426;-89
2023/10/20 01:25:57;;;;;;;9.65;5.07;;;;;;;5.61;100.00;98965.72;4972886;28;20434;-88
2023/10/20 01:28:25;;;;;;;8.30;4.80;;;;;;;5.71;100.00;98973.69;4989175;28;20484;-88
2023/10/20 01:30:54;;;;;;;8.70;4.80;;;;;;;5.55;100.00;98966.88;4973670;28;20429;-89
2023/10/20 01:33:22;;;;;;;10.27;3.75;;;;;;;5.61;100.00;98953.03;4991270;28;20411;-90
2023/10/20 01:35:50;;;;;;;9.05;4.80;;;;;;;5.68;100.00;98981.56;4973899;28;20427;-88
2023/10/20 01:38:19;;;;;;;9.40;4.80;;;;;;;5.51;100.00;98972.06;4986397;28;20415;-88
2023/10/20 01:40:47;;;;;;;7.40;4.40;;;;;;;5.61;100.00;98984.63;4970118;28;20458;-90
2023/10/20 01:43:17;;;;;;;8.00;4.28;;;;;;;5.48;100.00;98967.22;4970183;28;20427;-89
2023/10/20 01:45:46;;;;;;;9.07;4.50;;;;;;;5.41;100.00;98948.69;4973882;28;20904;-88
2023/10/20 01:48:14;;;;;;;9.70;4.88;;;;;;;5.43;100.00;98953.81;4970781;28;20423;-88
2023/10/20 01:50:44;;;;;;;8.15;4.30;;;;;;;5.58;100.00;98975.19;4988172;23;20430;-87
2023/10/20 01:53:17;;;;;;;8.52;4.95;;;;;;;5.57;100.00;98973.59;5025227;28;20447;-85
2023/10/20 01:55:49;;;;;;;8.60;4.68;;;;;;;5.61;100.00;98963.03;5009783;28;20468;-86
2023/10/20 01:58:19;;;;;;;7.70;4.20;;;;;;;5.60;100.00;98954.13;5009375;28;20416;-83
2023/10/20 02:00:52;;;;;;;8.82;4.47;;;;;;;5.56;100.00;98949.59;5005413;28;20434;-85
2023/10/20 02:03:20;;;;;;;9.15;4.60;;;;;;;5.54;100.00;98941.78;5005835;28;20430;-86
2023/10/20 02:05:49;;;;;;;7.50;4.03;;;;;;;5.64;100.00;98937.38;5003512;28;20441;-87
2023/10/20 02:08:17;;;;;;;7.13;4.15;;;;;;;5.57;100.00;98935.03;4998031;28;20426;-88
2023/10/20 02:10:46;;;;;;;7.93;4.20;;;;;;;5.66;100.00;98930.56;5001290;28;20434;-87
2023/10/20 02:13:15;;;;;;;8.77;4.35;;;;;;;5.57;100.00;98929.63;4994485;28;20418;-86
2023/10/20 02:15:48;;;;;;;10.85;4.43;;;;;;;5.53;100.00;98926.69;4991080;28;20787;-86
2023/10/20 02:18:17;;;;;;;9.35;4.85;;;;;;;5.62;100.00;98918.75;4994798;28;20428;-88
2023/10/20 02:20:56;;;;;;;7.57;4.32;;;;;;;5.53;100.00;98904.31;5006311;28;20456;-85
2023/10/20 02:23:25;;;;;;;8.48;4.75;;;;;;;5.52;100.00;98908.09;4980312;28;20426;-89
2023/10/20 02:25:58;;;;;;;8.52;4.57;;;;;;;5.59;100.00;98903.97;5006334;28;20426;-89
2023/10/20 02:28:26;;;;;;;8.73;4.73;;;;;;;5.54;100.00;98895.91;4996214;28;20953;-89
2023/10/20 02:30:57;;;;;;;7.25;4.20;;;;;;;5.58;100.00;98904.25;5005454;28;20430;-85
2023/10/20 02:33:25;;;;;;;10.32;4.35;;;;;;;5.54;100.00;98890.53;5006245;28;20456;-85
2023/10/20 02:35:55;;;;;;;9.27;4.78;;;;;;;5.51;100.00;98880.31;4995755;28;20420;-88
2023/10/20 02:38:23;;;;;;;7.63;4.38;;;;;;;5.48;100.00;98896.28;5006499;28;20411;-86
2023/10/20 02:40:57;;;;;;;8.07;4.30;;;;;;;5.38;100.00;98892.59;5005591;28;20919;-88
2023/10/20 02:43:26;;;;;;;8.65;4.47;;;;;;;5.40;100.00;98887.75;5004950;28;20785;-90
2023/10/20 02:45:56;;;;;;;9.07;4.40;;;;;;;5.48;100.00;98899.75;4985039;28;20535;-86
2023/10/20 02:48:30;;;;;;;7.80;4.10;;;;;;;5.45;100.00;98889.56;5001889;28;20431;-87
2023/10/20 02:50:58;;;;;;;8.00;4.38;;;;;;;5.36;100.00;98880.50;5006423;28;20425;-88
2023/10/20 02:53:31;;;;;;;7.82;4.25;;;;;;;5.45;100.00;98881.47;4982000;28;20799;-89
2023/10/20 02:55:59;;;;;;;8.32;3.90;;;;;;;5.47;100.00;98871.19;5009822;28;21375;-89
2023/10/20 02:58:33;;;;;;;9.43;4.28;;;;;;;5.35;100.00;98882.41;5006742;28;20440;-87
2023/10/20 03:01:05;;;;;;;7.00;3.90;;;;;;;5.36;100.00;98878.63;4987718;28;20847;-88
2023/10/20 03:03:36;;;;;;;7.07;3.95;;;;;;;5.36;100.00;98867.00;5005738;28;20430;-90
2023/10/20 03:06:06;;;;;;;6.97;3.80;;;;;;;5.37;100.00;98876.72;5004555;28;20883;-88
2023/10/20 03:08:37;;;;;;;10.48;4.13;;;;;;;5.34;100.00;98880.00;4998797;28;20806;-90
2023/10/20 03:11:06;;;;;;;10.15;3.92;;;;;;;5.40;100.00;98876.13;4987216;28;20420;-91
2023/10/20 03:13:35;;;;;;;7.80;3.90;;;;;;;5.41;100.00;98875.03;4999651;28;20889;-91
2023/10/20 03:16:09;;;;;;;8.32;3.85;;;;;;;5.41;100.00;98872.34;4978847;28;20424;-89
2023/10/20 03:18:38;;;;;;;7.28;3.90;;;;;;;5.29;100.00;98867.38;4994241;28;20479;-89
2023/10/20 03:21:12;;;;;;;6.97;3.70;;;;;;;5.19;100.00;98862.09;5003191;28;20438;-91
2023/10/20 03:23:43;;;;;;;7.47;4.00;;;;;;;5.18;100.00;98864.00;5006288;28;20431;-89
2023/10/20 03:26:12;;;;;;;8.15;3.78;;;;;;;5.22;100.00;98872.31;5009044;28;20422;-89
2023/10/20 03:28:41;;;;;;;7.30;3.85;;;;;;;5.30;100.00;98871.66;5008683;28;20449;-88
2023/10/20 03:31:17;;;;;;;7.57;4.20;;;;;;;5.35;100.00;98874.31;4987304;28;20434;-93
2023/10/20 03:33:50;;;;;;;7.63;3.90;;;;;;;5.35;100.00;98879.69;5008230;28;20446;-92
2023/10/20 03:36:24;;;;;;;7.53;4.13;;;;;;;5.26;100.00;98870.63;4997202;28;20765;-88
2023/10/20 03:38:57;;;;;;;7.85;4.40;;;;;;;5.23;100.00;98857.75;4993552;28;20418;-87
2023/10/20 03:41:30;;;;;;;7.80;4.47;;;;;;;5.16;100.00;98862.69;4980260;28;20434;-88
2023/10/20 03:43:59;;;;;;;8.55;4.50;;;;;;;5.21;100.00;98859.94;4997112;28;20424;-90
2023/10/20 03:46:30;;;;;;;7.72;4.63;;;;;;;5.10;100.00;98840.38;5006994;28;20431;-87
2023/10/20 03:49:05;;;;;;;7.55;4.30;;;;;;;5.16;100.00;98831.13;5008694;28;20414;-89
2023/10/20 03:51:35;;;;;;;7.63;4.07;;;;;;;5.26;100.00;98828.31;5004905;28;20431;-87
2023/10/20 03:54:08;;;;;;;7.95;4.43;;;;;;;5.19;100.00;98827.03;4991683;28;20430;-86
2023/10/20 03:56:37;;;;;;;8.15;4.57;;;;;;;5.14;100.00;98816.31;5009193;28;20419;-90
2023/10/20 03:59:05;;;;;;;8.43;4.70;;;;;;;5.14;100.00;98832.50;5007970;28;20428;-89
2023/10/20 04:01:35;;;;;;;8.95;5.25;;;;;;;5.13;100.00;98831.72;4992323;28;20411;-89
2023/10/20 04:04:04;;;;;;;8.98;5.00;;;;;;;5.14;100.00;98827.09;5008345;28;20426;-92
2023/10/20 04:06:33;;;;;;;8.97;5.00;;;;;;;5.18;100.00;98838.91;5007916;28;20449;-82
2023/10/20 04:09:09;;;;;;;8.88;5.10;;;;;;;5.16;100.00;98833.81;4998813;28;20445;-89
2023/10/20 04:11:38;;;;;;;8.98;4.93;;;;;;;5.14;100.00;98846.81;4987598;28;20419;-90
2023/10/20 04:14:07;;;;;;;10.23;5.30;;;;;;;5.11;100.00;98839.28;4995401;28;20418;-88
2023/10/20 04:16:39;;;;;;;7.63;4.45;;;;;;;5.17;100.00;98830.03;4991933;28;20414;-91
2023/10/20 04:19:14;;;;;;;8.40;4.72;;;;;;;5.09;100.00;98836.88;4978586;28;20418;-85
2023/10/20 04:21:44;;;;;;;8.65;5.10;;;;;;;5.03;100.00;98821.84;4988212;28;20443;-92
2023/10/20 04:24:19;;;;;;;11.75;5.15;;;;;;;4.96;100.00;98816.03;4991994;28;20427;-90
2023/10/20 04:26:55;;;;;;;10.25;5.32;;;;;;;5.05;100.00;98808.88;4989490;28;20418;-90
2023/10/20 04:29:34;;;;;;;9.13;4.95;;;;;;;5.08;100.00;98815.59;5008233;28;20791;-89
2023/10/20 04:49:16;;;;;;;8.75;4.85;;;;;;;4.93;100.00;98786.94;4991481;28;20453;-86
2023/10/20 04:52:04;;;;;;;9.30;4.82;;;;;;;4.93;100.00;98784.25;5007743;28;20421;-85
2023/10/20 04:54:50;;;;;;;10.55;4.90;;;;;;;4.93;100.00;98782.34;4991188;28;20434;-84
2023/10/20 04:57:35;;;;;;;8.63;4.53;;;;;;;4.88;100.00;98760.84;4999230;28;20429;-86
2023/10/20 05:02:58;;;;;;;9.45;4.90;;;;;;;4.91;100.00;98762.16;5002657;28;20450;-87
2023/10/20 05:05:34;;;;;;;10.05;4.85;;;;;;;4.80;100.00;98760.69;4981889;28;20434;-88
2023/10/20 05:08:05;;;;;;;8.82;4.53;;;;;;;4.85;100.00;98769.50;5004747;28;20463;-87
2023/10/20 05:10:39;;;;;;;8.05;4.00;;;;;;;4.76;100.00;98747.81;4993547;28;20430;-85
2023/10/20 05:13:07;;;;;;;7.97;4.00;;;;;;;4.72;100.00;98737.88;5007991;28;20440;-89
2023/10/20 05:15:43;;;;;;;7.47;4.03;;;;;;;4.75;100.00;98746.19;5001526;28;20432;-87
2023/10/20 05:18:12;;;;;;;7.10;3.90;;;;;;;4.73;100.00;98740.28;4999449;28;20447;-90
2023/10/20 05:20:47;;;;;;;8.52;4.35;;;;;;;4.73;100.00;98734.88;4991665;28;20421;-88
2023/10/20 05:23:15;;;;;;;9.07;4.38;;;;;;;4.73;100.00;98734.88;4981557;28;20441;-88
2023/10/20 05:25:49;;;;;;;7.72;4.20;;;;;;;4.70;100.00;98710.44;5006798;28;20422;-83
2023/10/20 05:28:18;;;;;;;8.80;4.35;;;;;;;4.71;100.00;98720.09;4991432;28;20885;-84
2023/10/20 05:30:51;;;;;;;8.45;4.20;;;;;;;4.68;100.00;98720.69;5011681;28;20446;-89
2023/10/20 05:33:25;;;;;;;8.15;4.22;;;;;;;4.70;100.00;98730.06;4992605;28;20437;-89
2023/10/20 05:36:05;;;;;;;7.53;4.38;;;;;;;4.72;100.00;98724.41;4988042;28;20428;-88
2023/10/20 05:38:33;;;;;;;7.85;4.25;;;;;;;4.66;100.00;98720.97;5002404;28;20424;-86
2023/10/20 05:41:01;;;;;;;8.52;4.47;;;;;;;4.67;100.00;98732.53;5004481;28;20460;-91
2023/10/20 05:43:30;;;;;;;7.45;4.13;;;;;;;4.63;100.00;98723.44;5009967;28;20435;-93
2023/10/20 05:45:59;;;;;;;7.80;4.13;;;;;;;4.74;100.00;98728.41;5006533;28;20417;-89
2023/10/20 05:48:27;;;;;;;7.95;4.13;;;;;;;4.71;100.00;98730.88;5006650;28;20787;-90
2023/10/20 05:51:00;;;;;;;9.43;4.45;;;;;;;4.78;100.00;98728.66;5015674;28;20430;-89
2023/10/20 05:53:35;;;;;;;9.25;4.03;;;;;;;4.77;100.00;98730.53;4992294;28;20426;-86
2023/10/20 05:56:06;;;;;;;8.43;4.15;;;;;;;4.93;100.00;98727.66;5006552;28;20415;-90
2023/10/20 05:58:34;;;;;;;7.43;3.90;;;;;;;4.80;100.00;98729.16;5009836;28;20427;-85
2023/10/20 06:01:06;;;;;;;8.20;3.92;;;;;;;4.88;100.00;98731.19;5005482;28;20478;-89
2023/10/20 06:03:39;;;;;;;7.97;3.80;;;;;;;4.81;100.00;98724.56;4989149;28;20415;-85
2023/10/20 06:06:13;;;;;;;9.82;3.90;;;;;;;4.81;100.00;98735.34;4994296;28;20426;-87
2023/10/20 06:08:49;;;;;;;7.65;4.10;;;;;;;4.77;100.00;98724.34;4990386;28;20423;-90
2023/10/20 06:11:22;;;;;;;8.07;4.20;;;;;;;4.74;100.00;98739.19;4989879;28;20421;-86
2023/10/20 06:13:50;;;;;;;9.00;4.07;;;;;;;4.77;100.00;98738.59;5012498;28;20426;-87
2023/10/20 06:16:24;;;;;;;8.82;4.60;;;;;;;4.78;100.00;98736.72;4987355;28;20429;-86
2023/10/20 06:18:52;;;;;;;8.73;4.63;;;;;;;4.76;100.00;98734.31;4997465;28;20426;-85
2023/10/20 06:21:20;;;;;;;11.40;4.80;;;;;;;4.73;100.00;98726.81;5007664;28;20428;-86
2023/10/20 06:23:50;;;;;;;9.60;4.80;;;;;;;4.72;100.00;98727.91;4983401;28;20445;-84
2023/10/20 06:26:18;;;;;;;10.90;5.00;;;;;;;4.72;100.00;98717.13;5015540;28;20411;-84
2023/10/20 06:28:46;;;;;;;8.27;4.47;;;;;;;4.59;100.00;98705.16;4994925;28;20429;-89
2023/10/20 06:31:41;;;;;;;8.48;4.80;;;;;;;4.63;100.00;98723.44;5012389;28;20422;-88
2023/10/20 06:34:19;;;;;;;10.15;5.32;;;;;;;4.64;100.00;98736.63;5009784;28;20418;-88
2023/10/20 06:36:48;;;;;;;9.32;5.25;;;;;;;4.70;100.00;98740.84;5008139;28;21293;-87
2023/10/20 06:39:22;;;;;;;9.17;5.07;;;;;;;4.68;100.00;98740.34;4995542;28;20418;-85
2023/10/20 06:41:50;;;;;;;9.70;5.55;;;;;;;4.70;100.00;98740.84;4993778;28;20441;-89
2023/10/20 06:44:28;;;;;;;9.77;5.50;;;;;;;4.69;100.00;98727.69;5007255;28;20445;-91
2023/10/20 06:47:02;;;;;;;10.20;5.40;;;;;;;4.80;100.00;98728.34;5011001;28;20437;-87
2023/10/20 06:49:36;;;;;;;10.38;5.93;;;;;;;4.69;100.00;98727.69;4993631;28;20790;-88
2023/10/20 06:52:04;;;;;;;10.40;5.80;;;;;;;4.65;100.00;98721.25;5010945;28;20433;-86
2023/10/20 06:54:48;;;;;;;11.05;5.78;;;;;;;4.70;100.00;98718.50;5005504;28;20426;-84
2023/10/20 06:57:20;;;;;;;10.07;5.78;;;;;;;4.73;100.00;98707.16;5007548;28;20425;-82
2023/10/20 06:59:54;;;;;;;10.63;5.90;;;;;;;4.73;100.00;98696.38;4992606;28;20822;-84
2023/10/20 07:02:22;;;;;;;11.07;6.18;;;;;;;4.69;100.00;98679.97;5008664;28;20425;-83
2023/10/20 07:04:56;;;;;;;10.93;6.38;;;;;;;4.67;100.00;98663.31;5009369;28;20465;-87
2023/10/20 07:07:29;;;;;;;12.27;5.90;;;;;;;4.67;100.00;98671.38;5004408;28;20438;-87
2023/10/20 07:10:05;;;;;;;13.50;7.47;;;;;;;4.78;100.00;98669.34;5005681;28;20426;-85
2023/10/20 07:12:33;;;;;;;13.50;7.22;;;;;;;4.63;100.00;98664.97;4993559;28;20426;-90
2023/10/20 07:15:07;;;;;;;12.90;7.20;;;;;;;4.72;100.00;98665.13;5008948;28;20426;-91
2023/10/20 07:17:36;;;;;;;13.50;7.40;;;;;;;4.72;100.00;98655.16;4991708;28;20441;-88
2023/10/20 07:20:10;;;;;;;13.18;7.55;;;;;;;4.72;100.00;98648.94;5008174;28;20434;-90
2023/10/20 07:22:41;;;;;;;13.98;7.65;;;;;;;4.74;100.00;98652.97;4981933;28;20508;-88
2023/10/20 07:25:11;;;;;;;12.13;6.88;;;;;;;4.72;100.00;98657.84;4997448;28;20442;-86
2023/10/20 07:27:39;;;;;;;13.02;7.07;;;;;;;4.75;100.00;98653.75;4986958;28;20434;-87
2023/10/20 07:30:12;;;;;;;13.70;7.90;;;;;;;4.75;100.00;98648.34;5007501;28;20431;-84
2023/10/20 07:32:42;;;;;;;14.13;7.80;;;;;;;4.68;100.00;98640.66;5002103;28;21129;-89
2023/10/20 07:35:18;;;;;;;15.27;7.60;;;;;;;4.60;100.00;98646.69;5001656;28;20434;-86
2023/10/20 07:42:42;;;;;;;15.82;8.82;;;;;;;4.66;100.00;98650.13;4997692;28;20425;-86
2023/10/20 07:45:19;;;;;;;15.25;8.65;;;;;;;4.63;100.00;98640.72;4973874;28;20434;-85
2023/10/20 07:47:56;;;;;;;15.65;8.98;;;;;;;4.65;100.00;98638.53;4988958;28;20430;-88
2023/10/20 07:57:24;;;;;;;14.90;8.68;;;;;;;4.72;100.00;98639.00;4983048;28;20431;-88
2023/10/20 08:00:03;;;;;;;15.90;9.02;;;;;;;4.63;100.00;98638.03;4987942;28;20891;-86
2023/10/20 08:02:57;;;;;;;16.25;8.85;;;;;;;4.53;100.00;98630.06;4957057;28;20426;-87
2023/10/20 08:05:31;;;;;;;16.30;8.50;;;;;;;4.66;100.00;98644.75;4990705;28;20489;-80
2023/10/20 08:08:06;;;;;;;15.82;8.77;;;;;;;4.69;100.00;98644.94;4971492;28;20431;-84
2023/10/20 08:11:26;;;;;;;15.60;8.32;;;;;;;4.77;100.00;98648.88;4968717;28;20430;-88
2023/10/20 08:14:28;;;;;;;14.73;8.20;;;;;;;4.66;100.00;98650.13;4953152;28;20431;-85
2023/10/20 08:16:56;;;;;;;17.50;8.65;;;;;;;4.58;100.00;98643.47;4935680;28;20451;-88
2023/10/20 08:19:30;;;;;;;15.55;8.55;;;;;;;4.58;100.00;98633.53;4963235;28;20449;-86
2023/10/20 08:22:00;;;;;;;14.43;8.02;;;;;;;4.63;100.00;98638.03;4988323;28;20426;-90
2023/10/20 08:24:28;;;;;;;11.68;5.68;;;;;;;4.64;100.00;98636.13;4969125;28;20057;-84
2023/10/20 08:27:02;;;;;;;8.75;4.28;;;;;;;4.54;100.00;98632.50;4976787;28;20073;-85
2023/10/20 08:29:35;;;;;;;8.35;3.88;;;;;;;4.59;100.00;98640.50;4972748;28;20050;-85
2023/10/20 08:32:04;;;;;;;9.90;4.00;;;;;;;4.61;100.00;98648.28;4983256;28;20944;-86
2023/10/20 08:34:39;;;;;;;7.45;3.25;;;;;;;4.59;100.00;98635.09;4982671;28;20070;-84
2023/10/20 08:37:07;;;;;;;4.80;2.85;;;;;;;4.58;100.00;98651.56;4989040;28;20451;-84
2023/10/20 08:39:38;;;;;;;8.10;4.20;;;;;;;4.55;100.00;98639.47;4956550;28;20054;-86
2023/10/20 08:42:16;;;;;;;6.65;3.38;;;;;;;4.55;100.00;98644.06;4957492;28;20058;-82
2023/10/20 08:44:50;;;;;;;7.22;3.45;;;;;;;4.56;100.00;98649.16;4959910;28;20135;-87
2023/10/20 08:47:20;;;;;;;6.93;3.35;;;;;;;4.56;100.00;98646.47;4985459;28;20779;-88
2023/10/20 08:49:55;;;;;;;7.90;3.60;;;;;;;4.58;100.00;98654.25;4972561;28;20059;-81
2023/10/20 08:52:29;;;;;;;8.63;4.00;;;;;;;4.53;100.00;98640.84;4956792;28;20151;-85
2023/10/20 08:55:04;;;;;;;8.13;3.70;;;;;;;4.53;100.00;98638.16;4986504;28;20071;-88
2023/10/20 08:57:37;;;;;;;7.65;3.95;;;;;;;4.50;100.00;98634.19;4957612;28;20058;-86
2023/10/20 09:00:08;;;;;;;8.98;3.70;;;;;;;4.52;100.00;98631.19;4987203;28;20047;-85
2023/10/20 09:02:41;;;;;;;5.32;2.80;;;;;;;4.60;100.00;98633.22;4973579;28;20055;-85
2023/10/20 09:05:11;;;;;;;7.07;3.60;;;;;;;4.59;100.00;98629.72;4996468;28;20054;-86
2023/10/20 09:07:41;;;;;;;6.32;3.30;;;;;;;4.55;100.00;98619.81;4980239;28;20038;-83
2023/10/20 09:10:14;;;;;;;6.25;3.45;;;;;;;4.56;100.00;98616.84;4988708;28;20055;-85
2023/10/20 09:12:48;;;;;;;6.55;3.55;;;;;;;4.61;100.00;98613.25;5004953;28;20061;-80
2023/10/20 09:15:16;;;;;;;6.22;2.67;;;;;;;4.54;100.00;98605.56;4973342;28;20061;-83
2023/10/20 09:17:54;;;;;;;7.45;3.65;;;;;;;4.57;100.00;98612.25;4987903;28;20058;-83
2023/10/20 09:20:31;;;;;;;5.05;2.90;;;;;;;4.60;100.00;98600.91;4986501;28;21881;-82
2023/10/20 09:22:59;;;;;;;6.32;3.33;;;;;;;4.52;100.00;98580.78;5016321;28;20066;-86
2023/10/20 09:25:33;;;;;;;5.03;2.80;;;;;;;4.62;100.00;98577.16;5001625;28;20054;-84
2023/10/20 09:28:01;;;;;;;7.63;3.90;;;;;;;4.58;100.00;98568.06;4984030;28;20058;-82
2023/10/20 09:35:16;;;;;;;6.15;3.33;;;;;;;4.53;100.00;98550.06;4913603;29;20051;-86
2023/10/20 09:37:50;;;;;;;4.88;2.63;;;;;;;4.58;100.00;98563.47;4936772;28;20058;-85
2023/10/20 09:40:25;;;;;;;5.93;3.13;;;;;;;4.53;100.00;98560.03;4972082;28;20047;-83
2023/10/20 09:43:09;;;;;;;5.45;2.53;;;;;;;4.52;100.00;98555.75;4990437;28;20388;-82
2023/10/20 09:45:43;;;;;;;4.90;2.25;;;;;;;4.56;100.00;98559.47;4988801;28;20078;-94
2023/10/20 09:48:18;;;;;;;7.65;2.90;;;;;;;4.51;100.00;98568.41;5004503;28;20054;-85
2023/10/20 09:50:52;;;;;;;5.53;2.75;;;;;;;4.53;100.00;98560.84;4983605;28;20046;-85
2023/10/20 09:53:27;;;;;;;4.43;2.65;;;;;;;4.56;100.00;98575.63;4986529;28;20051;-84
2023/10/20 09:55:56;;;;;;;3.88;2.13;;;;;;;4.56;100.00;98571.03;4973632;28;20046;-83
2023/10/20 09:58:26;;;;;;;7.00;2.80;;;;;;;4.61;100.00;98564.75;4988363;28;20051;-86
2023/10/20 10:00:56;;;;;;;4.80;2.53;;;;;;;4.61;100.00;98559.38;4995329;28;20066;-84
2023/10/20 10:03:30;;;;;;;4.57;2.42;;;;;;;4.59;100.00;98565.06;4974995;28;20491;-84
2023/10/20 10:06:01;;;;;;;4.38;2.33;;;;;;;4.66;100.00;98572.78;4991399;28;20075;-81
2023/10/20 10:08:31;;;;;;;5.22;2.55;;;;;;;4.58;100.00;98571.56;4987089;28;20062;-87
2023/10/20 10:11:18;;;;;;;7.00;2.75;;;;;;;4.55;100.00;98564.03;4987698;28;20054;-84
2023/10/20 10:13:55;;;;;;;;;;;;;;;4.62;100.00;98566.38;4975665;28;20043;-91
2023/10/20 10:16:28;;;;;;;3.78;2.25;;;;;;;4.58;100.00;98562.66;5010723;28;20498;-85
2023/10/20 10:19:11;;;;;;;5.10;1.90;;;;;;;4.63;100.00;98562.59;4970937;28;20399;-84
2023/10/20 10:22:33;;;;;;;4.70;2.47;;;;;;;4.65;100.00;98578.47;4995451;28;20049;-86
2023/10/20 10:25:35;;;;;;;5.28;2.75;;;;;;;4.58;100.00;98566.19;4977553;28;20058;-86
2023/10/20 10:28:09;;;;;;;4.03;2.20;;;;;;;4.64;100.00;98577.69;4969848;28;20047;-88
2023/10/20 10:30:44;;;;;;;7.93;2.20;;;;;;;4.62;100.00;98574.47;5002916;28;20066;-85
2023/10/20 10:33:13;;;;;;;5.45;2.45;;;;;;;4.68;100.00;98580.56;5006153;28;20653;-88
2023/10/20 10:35:41;;;;;;;8.65;2.08;;;;;;;4.66;100.00;98575.47;5008602;28;20043;-93
2023/10/20 10:38:22;;;;;;;5.00;2.80;;;;;;;4.73;100.00;98580.50;4978615;28;20057;-86
2023/10/20 10:40:52;;;;;;;4.82;2.50;;;;;;;4.70;100.00;98579.19;4984558;28;20058;-85
2023/10/20 10:43:25;;;;;;;5.53;2.53;;;;;;;4.70;100.00;98576.50;4989559;28;20050;-84
2023/10/20 10:45:54;;;;;;;3.75;2.08;;;;;;;4.65;100.00;98573.88;4986292;28;20053;-86
2023/10/20 10:48:29;;;;;;;5.72;2.88;;;;;;;4.73;100.00;98583.97;4969083;28;20043;-88
2023/10/20 10:50:59;;;;;;;5.47;2.72;;;;;;;4.73;100.00;98572.41;4976752;28;20058;-85
2023/10/20 10:53:27;;;;;;;5.55;2.72;;;;;;;4.72;100.00;98574.31;4978691;28;20066;-83
2023/10/20 10:55:57;;;;;;;5.95;2.53;;;;;;;4.75;100.00;98575.59;5008070;28;20047;-87
2023/10/20 10:58:25;;;;;;;4.93;2.25;;;;;;;4.71;100.00;98570.00;4967462;28;20046;-88
2023/10/20 11:00:54;;;;;;;4.95;2.40;;;;;;;4.70;100.00;98563.03;4975330;28;20062;-89
2023/10/20 11:03:37;;;;;;;3.85;2.15;;;;;;;4.74;100.00;98568.63;4970964;28;20055;-90
2023/10/20 11:06:08;;;;;;;4.32;2.13;;;;;;;4.72;100.00;98563.53;4976659;28;20051;-91
2023/10/20 11:08:44;;;;;;;4.70;2.25;;;;;;;4.76;100.00;98542.19;4981750;28;20061;-89
2023/10/20 11:11:16;;;;;;;6.60;2.40;;;;;;;4.75;100.00;98556.75;4974553;28;20492;-90
2023/10/20 11:13:49;;;;;;;2.63;1.50;;;;;;;4.80;100.00;98551.28;4987066;28;20059;-86
2023/10/20 11:16:18;;;;;;;4.50;2.42;;;;;;;4.77;100.00;98558.06;4971556;28;20046;-88
2023/10/20 11:18:49;;;;;;;4.22;2.20;;;;;;;4.81;100.00;98562.88;4980583;28;20057;-88
2023/10/20 11:21:22;;;;;;;1.83;1.23;;;;;;;4.82;100.00;98564.47;5007357;28;20051;-92
2023/10/20 11:23:57;;;;;;;4.38;2.03;;;;;;;4.78;100.00;98556.19;4972845;28;20055;-91
2023/10/20 11:26:28;;;;;;;3.60;2.25;;;;;;;4.85;100.00;98558.50;4965319;28;20052;-87
2023/10/20 11:28:57;;;;;;;4.47;2.10;;;;;;;4.88;100.00;98547.13;4995214;28;20046;-92
2023/10/20 11:31:26;;;;;;;4.40;1.95;;;;;;;4.85;100.00;98555.81;4977759;28;20476;-88
2023/10/20 11:33:54;;;;;;;3.95;1.80;;;;;;;4.85;100.00;98561.19;5006288;28;20054;-88
2023/10/20 11:36:22;;;;;;;2.95;1.58;;;;;;;4.81;100.00;98557.50;4973474;28;20053;-90
2023/10/20 11:38:55;;;;;;;4.78;2.30;;;;;;;4.82;100.00;98549.09;4988014;28;20066;-91
2023/10/20 11:41:24;;;;;;;4.43;1.83;;;;;;;4.86;100.00;98547.44;4970631;28;20066;-87
2023/10/20 11:43:59;;;;;;;3.45;1.65;;;;;;;4.86;100.00;98542.03;4970903;28;20058;-86
2023/10/20 11:46:32;;;;;;;3.08;1.70;;;;;;;4.86;100.00;98541.22;4970681;28;20085;-90
2023/10/20 11:49:00;;;;;;;5.35;2.08;;;;;;;4.86;100.00;98542.03;4973459;28;20051;-88
2023/10/20 11:51:28;;;;;;;3.83;1.90;;;;;;;4.82;100.00;98543.72;4978661;28;20054;-88
2023/10/20 11:54:02;;;;;;;4.03;1.90;;;;;;;4.88;100.00;98539.03;4960454;28;20074;-89
2023/10/20 11:56:30;;;;;;;4.35;1.60;;;;;;;4.92;100.00;98534.66;4968062;28;20059;-82
2023/10/20 11:59:06;;;;;;;2.88;1.60;;;;;;;4.86;100.00;98539.34;4951620;28;20053;-91
2023/10/20 12:01:35;;;;;;;4.10;1.75;;;;;;;4.89;100.00;98521.78;4956745;28;20057;-90
2023/10/20 12:04:08;;;;;;;4.00;1.88;;;;;;;4.85;100.00;98532.34;4960168;28;20047;-89
2023/10/20 12:06:43;;;;;;;2.42;1.52;;;;;;;4.95;100.00;98528.69;4990327;28;20074;-87
2023/10/20 12:09:14;;;;;;;2.40;1.25;;;;;;;4.90;100.00;98518.78;4964462;28;20051;-87
2023/10/20 12:11:44;;;;;;;4.15;1.50;;;;;;;4.90;100.00;98520.66;4971423;28;20054;-92
2023/10/20 12:14:15;;;;;;;2.88;1.63;;;;;;;4.83;100.00;98510.25;4986117;28;20054;-89
2023/10/20 12:16:44;;;;;;;2.90;1.55;;;;;;;4.86;100.00;98508.88;4991631;28;20050;-85
2023/10/20 12:19:18;;;;;;;2.75;1.58;;;;;;;4.90;100.00;98518.78;4969725;28;20059;-89
2023/10/20 12:21:46;;;;;;;3.20;1.50;;;;;;;4.90;100.00;98501.78;4989053;28;20121;-90
2023/10/20 12:24:19;;;;;;;3.97;2.00;;;;;;;4.91;100.00;98506.09;4954348;28;20047;-88
2023/10/20 12:26:48;;;;;;;6.00;1.95;;;;;;;4.97;100.00;98496.03;4955200;28;20061;-89
2023/10/20 12:29:24;;;;;;;2.45;1.20;;;;;;;4.98;100.00;98501.13;4972254;28;20538;-89
2023/10/20 12:31:58;;;;;;;3.22;1.58;;;;;;;4.98;100.00;98487.63;4975132;28;20054;-89